sensor_id;sensor_type;location;lat;lon;timestamp;temperature;humidity
13229;DHT22;6680;53.220;10.402;2022-11-15T00:01:58;5.50;99.90
13229;DHT22;6680;53.220;10.402;2022-11-15T00:04:26;5.60;99.90
13229;DHT22;6680;53.220;10.402;2022-11-15T00:06:53;5.70;99.90
13229;DHT22;6680;53.220;10.402;2022-11-15T00:09:19;5.70;99.90
13229;DHT22;6680;53.220;10.402;2022-11-15T00:11:46;5.80;99.90
13229;DHT22;6680;53.220;10.402;2022-11-15T00:14:13;5.70;99.90
13229;DHT22;6680;53.220;10.402;2022-11-15T00:16:39;5.80;99.90
13229;DHT22;6680;53.220;10.402;2022-11-15T00:19:06;5.80;99.90
13229;DHT22;6680;53.220;10.402;2022-11-15T00:21:34;5.80;99.90
13229;DHT22;6680;53.220;10.402;2022-11-15T00:24:01;5.80;99.90
13229;DHT22;6680;53.220;10.402;2022-11-15T00:26:27;5.50;99.90
13229;DHT22;6680;53.220;10.402;2022-11-15T00:28:54;5.70;99.90
13229;DHT22;6680;53.220;10.402;2022-11-15T00:31:21;5.70;99.90
13229;DHT22;6680;53.220;10.402;2022-11-15T00:33:47;5.80;99.90
13229;DHT22;6680;53.220;10.402;2022-11-15T00:36:14;6.00;99.90
13229;DHT22;6680;53.220;10.402;2022-11-15T00:38:42;6.00;99.90
13229;DHT22;6680;53.220;10.402;2022-11-15T00:41:09;5.90;99.90
13229;DHT22;6680;53.220;10.402;2022-11-15T00:43:36;5.90;99.90
13229;DHT22;6680;53.220;10.402;2022-11-15T00:46:02;5.80;99.90
13229;DHT22;6680;53.220;10.402;2022-11-15T00:48:29;5.70;99.90
13229;DHT22;6680;53.220;10.402;2022-11-15T00:50:57;5.60;99.90
13229;DHT22;6680;53.220;10.402;2022-11-15T00:53:23;5.50;99.90
13229;DHT22;6680;53.220;10.402;2022-11-15T00:55:51;5.40;99.90
13229;DHT22;6680;53.220;10.402;2022-11-15T00:58:18;5.40;99.90
13229;DHT22;6680;53.220;10.402;2022-11-15T01:00:45;5.30;99.90
13229;DHT22;6680;53.220;10.402;2022-11-15T01:03:11;5.20;99.90
13229;DHT22;6680;53.220;10.402;2022-11-15T01:05:38;5.20;99.90
13229;DHT22;6680;53.220;10.402;2022-11-15T01:08:05;5.20;99.90
13229;DHT22;6680;53.220;10.402;2022-11-15T01:10:33;5.10;99.90
13229;DHT22;6680;53.220;10.402;2022-11-15T01:13:01;5.10;99.90
13229;DHT22;6680;53.220;10.402;2022-11-15T01:15:27;5.00;99.90
13229;DHT22;6680;53.220;10.402;2022-11-15T01:17:54;5.00;99.90
13229;DHT22;6680;53.220;10.402;2022-11-15T01:20:21;5.00;99.90
13229;DHT22;6680;53.220;10.402;2022-11-15T01:22:47;5.00;99.90
13229;DHT22;6680;53.220;10.402;2022-11-15T01:25:14;5.00;99.90
13229;DHT22;6680;53.220;10.402;2022-11-15T01:27:41;5.00;99.90
13229;DHT22;6680;53.220;10.402;2022-11-15T01:30:10;5.00;99.90
13229;DHT22;6680;53.220;10.402;2022-11-15T01:32:36;5.00;99.90
13229;DHT22;6680;53.220;10.402;2022-11-15T01:35:04;5.00;99.90
13229;DHT22;6680;53.220;10.402;2022-11-15T01:37:30;4.90;99.90
13229;DHT22;6680;53.220;10.402;2022-11-15T01:39:57;5.00;99.90
13229;DHT22;6680;53.220;10.402;2022-11-15T01:42:24;4.90;99.90
13229;DHT22;6680;53.220;10.402;2022-11-15T01:44:51;4.90;99.90
13229;DHT22;6680;53.220;10.402;2022-11-15T01:47:24;4.80;99.90
13229;DHT22;6680;53.220;10.402;2022-11-15T01:49:55;4.80;99.90
13229;DHT22;6680;53.220;10.402;2022-11-15T01:52:24;4.70;99.90
13229;DHT22;6680;53.220;10.402;2022-11-15T01:54:56;4.70;99.90
13229;DHT22;6680;53.220;10.402;2022-11-15T01:57:25;4.70;99.90
13229;DHT22;6680;53.220;10.402;2022-11-15T01:59:51;4.70;99.90
13229;DHT22;6680;53.220;10.402;2022-11-15T02:02:18;4.70;99.90
13229;DHT22;6680;53.220;10.402;2022-11-15T02:04:47;4.70;99.90
13229;DHT22;6680;53.220;10.402;2022-11-15T02:07:16;4.70;99.90
13229;DHT22;6680;53.220;10.402;2022-11-15T02:09:44;4.70;99.90
13229;DHT22;6680;53.220;10.402;2022-11-15T02:12:13;4.70;99.90
13229;DHT22;6680;53.220;10.402;2022-11-15T02:14:43;4.70;99.90
13229;DHT22;6680;53.220;10.402;2022-11-15T02:17:22;4.70;99.90
13229;DHT22;6680;53.220;10.402;2022-11-15T02:23:04;4.80;99.90
13229;DHT22;6680;53.220;10.402;2022-11-15T02:25:40;4.70;99.90
13229;DHT22;6680;53.220;10.402;2022-11-15T02:28:32;4.70;99.90
13229;DHT22;6680;53.220;10.402;2022-11-15T02:31:06;4.70;99.90
13229;DHT22;6680;53.220;10.402;2022-11-15T02:33:44;4.80;99.90
13229;DHT22;6680;53.220;10.402;2022-11-15T02:36:23;4.70;99.90
13229;DHT22;6680;53.220;10.402;2022-11-15T02:39:00;4.70;99.90
13229;DHT22;6680;53.220;10.402;2022-11-15T02:41:31;4.80;99.90
13229;DHT22;6680;53.220;10.402;2022-11-15T02:44:07;4.70;99.90
13229;DHT22;6680;53.220;10.402;2022-11-15T02:46:41;4.50;99.90
13229;DHT22;6680;53.220;10.402;2022-11-15T02:49:29;4.70;99.90
13229;DHT22;6680;53.220;10.402;2022-11-15T02:51:57;4.60;99.90
13229;DHT22;6680;53.220;10.402;2022-11-15T02:54:25;4.60;99.90
13229;DHT22;6680;53.220;10.402;2022-11-15T02:56:55;4.70;99.90
13229;DHT22;6680;53.220;10.402;2022-11-15T02:59:43;4.60;99.90
13229;DHT22;6680;53.220;10.402;2022-11-15T03:02:32;4.70;99.90
13229;DHT22;6680;53.220;10.402;2022-11-15T03:05:07;4.70;99.90
13229;DHT22;6680;53.220;10.402;2022-11-15T03:07:43;4.80;99.90
13229;DHT22;6680;53.220;10.402;2022-11-15T03:10:16;4.80;99.90
13229;DHT22;6680;53.220;10.402;2022-11-15T03:12:48;4.90;99.90
13229;DHT22;6680;53.220;10.402;2022-11-15T03:15:18;4.90;99.90
13229;DHT22;6680;53.220;10.402;2022-11-15T03:17:52;4.80;99.90
13229;DHT22;6680;53.220;10.402;2022-11-15T03:20:20;4.70;99.90
13229;DHT22;6680;53.220;10.402;2022-11-15T03:22:48;4.70;99.90
13229;DHT22;6680;53.220;10.402;2022-11-15T03:25:17;4.70;99.90
13229;DHT22;6680;53.220;10.402;2022-11-15T03:27:49;4.70;99.90
13229;DHT22;6680;53.220;10.402;2022-11-15T03:30:17;4.70;99.90
13229;DHT22;6680;53.220;10.402;2022-11-15T03:32:47;4.70;99.90
13229;DHT22;6680;53.220;10.402;2022-11-15T03:35:19;4.70;99.90
13229;DHT22;6680;53.220;10.402;2022-11-15T03:37:50;4.60;99.90
13229;DHT22;6680;53.220;10.402;2022-11-15T03:40:22;4.60;99.90
13229;DHT22;6680;53.220;10.402;2022-11-15T03:42:56;5.20;99.90
13229;DHT22;6680;53.220;10.402;2022-11-15T03:45:29;4.60;99.90
13229;DHT22;6680;53.220;10.402;2022-11-15T03:48:00;4.60;99.90
13229;DHT22;6680;53.220;10.402;2022-11-15T03:50:29;4.70;99.90
13229;DHT22;6680;53.220;10.402;2022-11-15T03:52:56;4.80;99.90
13229;DHT22;6680;53.220;10.402;2022-11-15T03:55:24;4.90;99.90
13229;DHT22;6680;53.220;10.402;2022-11-15T03:57:53;4.90;99.90
13229;DHT22;6680;53.220;10.402;2022-11-15T04:00:20;5.00;99.90
13229;DHT22;6680;53.220;10.402;2022-11-15T04:02:47;5.00;99.90
13229;DHT22;6680;53.220;10.402;2022-11-15T04:05:14;5.00;99.90
13229;DHT22;6680;53.220;10.402;2022-11-15T04:07:42;5.10;99.90
13229;DHT22;6680;53.220;10.402;2022-11-15T04:10:10;5.20;99.90
13229;DHT22;6680;53.220;10.402;2022-11-15T04:12:38;5.20;99.90
13229;DHT22;6680;53.220;10.402;2022-11-15T04:15:09;5.20;99.90
13229;DHT22;6680;53.220;10.402;2022-11-15T04:17:40;5.20;99.90
13229;DHT22;6680;53.220;10.402;2022-11-15T04:20:10;5.20;99.90
13229;DHT22;6680;53.220;10.402;2022-11-15T04:22:56;5.20;99.90
13229;DHT22;6680;53.220;10.402;2022-11-15T04:25:41;5.30;99.90
13229;DHT22;6680;53.220;10.402;2022-11-15T04:28:08;5.20;99.90
13229;DHT22;6680;53.220;10.402;2022-11-15T04:30:35;5.20;99.90
13229;DHT22;6680;53.220;10.402;2022-11-15T04:33:02;5.20;99.90
13229;DHT22;6680;53.220;10.402;2022-11-15T04:35:29;5.20;99.90
13229;DHT22;6680;53.220;10.402;2022-11-15T04:37:58;5.20;99.90
13229;DHT22;6680;53.220;10.402;2022-11-15T04:40:23;5.20;99.90
13229;DHT22;6680;53.220;10.402;2022-11-15T04:42:50;5.10;99.90
13229;DHT22;6680;53.220;10.402;2022-11-15T04:45:17;5.20;99.90
13229;DHT22;6680;53.220;10.402;2022-11-15T04:47:44;5.10;99.90
13229;DHT22;6680;53.220;10.402;2022-11-15T04:50:11;5.10;99.90
13229;DHT22;6680;53.220;10.402;2022-11-15T04:52:39;5.10;99.90
13229;DHT22;6680;53.220;10.402;2022-11-15T04:55:08;5.10;99.90
13229;DHT22;6680;53.220;10.402;2022-11-15T04:57:35;5.10;99.90
13229;DHT22;6680;53.220;10.402;2022-11-15T05:00:03;5.10;99.90
13229;DHT22;6680;53.220;10.402;2022-11-15T05:02:30;5.00;99.90
13229;DHT22;6680;53.220;10.402;2022-11-15T05:05:16;5.00;99.90
13229;DHT22;6680;53.220;10.402;2022-11-15T05:07:42;4.90;99.90
13229;DHT22;6680;53.220;10.402;2022-11-15T05:10:10;4.90;99.90
13229;DHT22;6680;53.220;10.402;2022-11-15T05:12:37;4.90;99.90
13229;DHT22;6680;53.220;10.402;2022-11-15T05:15:05;4.80;99.90
13229;DHT22;6680;53.220;10.402;2022-11-15T05:17:31;4.90;99.90
13229;DHT22;6680;53.220;10.402;2022-11-15T05:19:58;4.80;99.90
13229;DHT22;6680;53.220;10.402;2022-11-15T05:22:25;4.90;99.90
13229;DHT22;6680;53.220;10.402;2022-11-15T05:24:51;4.90;99.90
13229;DHT22;6680;53.220;10.402;2022-11-15T05:27:19;4.90;99.90
13229;DHT22;6680;53.220;10.402;2022-11-15T05:29:46;4.90;99.90
13229;DHT22;6680;53.220;10.402;2022-11-15T05:32:13;5.00;99.90
13229;DHT22;6680;53.220;10.402;2022-11-15T05:34:40;5.10;99.90
13229;DHT22;6680;53.220;10.402;2022-11-15T05:37:07;5.20;99.90
13229;DHT22;6680;53.220;10.402;2022-11-15T05:42:05;5.40;99.90
13229;DHT22;6680;53.220;10.402;2022-11-15T05:44:36;5.50;99.90
13229;DHT22;6680;53.220;10.402;2022-11-15T05:47:04;5.60;99.90
13229;DHT22;6680;53.220;10.402;2022-11-15T05:49:35;5.60;99.90
13229;DHT22;6680;53.220;10.402;2022-11-15T05:52:05;5.70;99.90
13229;DHT22;6680;53.220;10.402;2022-11-15T05:54:33;5.80;99.90
13229;DHT22;6680;53.220;10.402;2022-11-15T05:57:02;5.80;99.90
13229;DHT22;6680;53.220;10.402;2022-11-15T05:59:29;5.80;99.90
13229;DHT22;6680;53.220;10.402;2022-11-15T06:01:58;5.90;99.90
13229;DHT22;6680;53.220;10.402;2022-11-15T06:04:25;5.90;99.90
13229;DHT22;6680;53.220;10.402;2022-11-15T06:06:51;5.90;99.90
13229;DHT22;6680;53.220;10.402;2022-11-15T06:09:18;5.90;99.90
13229;DHT22;6680;53.220;10.402;2022-11-15T06:11:45;5.90;99.90
13229;DHT22;6680;53.220;10.402;2022-11-15T06:14:11;5.90;99.90
13229;DHT22;6680;53.220;10.402;2022-11-15T06:16:38;5.80;99.90
13229;DHT22;6680;53.220;10.402;2022-11-15T06:19:07;6.00;99.90
13229;DHT22;6680;53.220;10.402;2022-11-15T06:21:34;6.10;99.90
13229;DHT22;6680;53.220;10.402;2022-11-15T06:24:00;6.10;99.90
13229;DHT22;6680;53.220;10.402;2022-11-15T06:26:27;6.10;99.90
13229;DHT22;6680;53.220;10.402;2022-11-15T06:28:54;6.10;99.90
13229;DHT22;6680;53.220;10.402;2022-11-15T06:31:20;6.20;99.90
13229;DHT22;6680;53.220;10.402;2022-11-15T06:33:47;6.20;99.90
13229;DHT22;6680;53.220;10.402;2022-11-15T06:36:16;6.30;99.90
13229;DHT22;6680;53.220;10.402;2022-11-15T06:38:43;6.30;99.90
13229;DHT22;6680;53.220;10.402;2022-11-15T06:41:11;6.30;99.90
13229;DHT22;6680;53.220;10.402;2022-11-15T06:43:39;6.30;99.90
13229;DHT22;6680;53.220;10.402;2022-11-15T06:46:06;6.40;99.90
13229;DHT22;6680;53.220;10.402;2022-11-15T06:48:33;6.40;99.90
13229;DHT22;6680;53.220;10.402;2022-11-15T06:51:03;6.40;99.90
13229;DHT22;6680;53.220;10.402;2022-11-15T06:53:32;6.40;99.90
13229;DHT22;6680;53.220;10.402;2022-11-15T06:55:59;6.50;99.90
13229;DHT22;6680;53.220;10.402;2022-11-15T06:58:27;6.50;99.90
13229;DHT22;6680;53.220;10.402;2022-11-15T07:00:57;6.50;99.90
13229;DHT22;6680;53.220;10.402;2022-11-15T07:03:24;6.60;99.90
13229;DHT22;6680;53.220;10.402;2022-11-15T07:05:52;6.70;99.90
13229;DHT22;6680;53.220;10.402;2022-11-15T07:08:20;6.70;99.90
13229;DHT22;6680;53.220;10.402;2022-11-15T07:10:48;6.70;99.90
13229;DHT22;6680;53.220;10.402;2022-11-15T07:13:15;6.80;99.90
13229;DHT22;6680;53.220;10.402;2022-11-15T07:15:41;6.80;99.90
13229;DHT22;6680;53.220;10.402;2022-11-15T07:18:08;6.90;99.90
13229;DHT22;6680;53.220;10.402;2022-11-15T07:20:34;6.90;99.90
13229;DHT22;6680;53.220;10.402;2022-11-15T07:23:02;7.00;99.90
13229;DHT22;6680;53.220;10.402;2022-11-15T07:25:29;7.00;99.90
13229;DHT22;6680;53.220;10.402;2022-11-15T07:27:57;7.00;99.90
13229;DHT22;6680;53.220;10.402;2022-11-15T07:30:25;7.00;99.90
13229;DHT22;6680;53.220;10.402;2022-11-15T07:32:53;6.90;99.90
13229;DHT22;6680;53.220;10.402;2022-11-15T07:35:19;7.00;99.90
13229;DHT22;6680;53.220;10.402;2022-11-15T07:37:53;7.10;99.90
13229;DHT22;6680;53.220;10.402;2022-11-15T07:40:20;7.20;99.90
13229;DHT22;6680;53.220;10.402;2022-11-15T07:42:46;7.30;99.90
13229;DHT22;6680;53.220;10.402;2022-11-15T07:45:20;7.30;99.90
13229;DHT22;6680;53.220;10.402;2022-11-15T07:47:48;7.40;99.90
13229;DHT22;6680;53.220;10.402;2022-11-15T07:50:15;7.60;99.90
13229;DHT22;6680;53.220;10.402;2022-11-15T07:52:42;7.50;99.90
13229;DHT22;6680;53.220;10.402;2022-11-15T07:55:09;7.60;99.90
13229;DHT22;6680;53.220;10.402;2022-11-15T07:57:36;7.60;99.90
13229;DHT22;6680;53.220;10.402;2022-11-15T08:00:04;7.60;99.90
13229;DHT22;6680;53.220;10.402;2022-11-15T08:02:32;7.60;99.90
13229;DHT22;6680;53.220;10.402;2022-11-15T08:04:59;7.40;99.90
13229;DHT22;6680;53.220;10.402;2022-11-15T08:07:28;7.40;99.90
13229;DHT22;6680;53.220;10.402;2022-11-15T08:09:55;7.20;99.90
13229;DHT22;6680;53.220;10.402;2022-11-15T08:12:22;7.30;99.90
13229;DHT22;6680;53.220;10.402;2022-11-15T08:14:49;7.30;99.90
13229;DHT22;6680;53.220;10.402;2022-11-15T08:17:16;7.30;99.90
13229;DHT22;6680;53.220;10.402;2022-11-15T08:19:44;7.40;99.90
13229;DHT22;6680;53.220;10.402;2022-11-15T08:22:10;7.40;99.90
13229;DHT22;6680;53.220;10.402;2022-11-15T08:24:37;7.30;99.90
13229;DHT22;6680;53.220;10.402;2022-11-15T08:27:04;7.30;99.90
13229;DHT22;6680;53.220;10.402;2022-11-15T08:29:30;7.30;99.90
13229;DHT22;6680;53.220;10.402;2022-11-15T08:31:57;7.30;99.90
13229;DHT22;6680;53.220;10.402;2022-11-15T08:34:24;7.40;99.90
13229;DHT22;6680;53.220;10.402;2022-11-15T08:36:52;7.40;99.90
13229;DHT22;6680;53.220;10.402;2022-11-15T08:39:18;7.40;99.90
13229;DHT22;6680;53.220;10.402;2022-11-15T08:41:45;7.40;99.90
13229;DHT22;6680;53.220;10.402;2022-11-15T08:44:12;7.40;99.90
13229;DHT22;6680;53.220;10.402;2022-11-15T08:46:38;7.30;99.90
13229;DHT22;6680;53.220;10.402;2022-11-15T08:49:05;7.40;99.90
13229;DHT22;6680;53.220;10.402;2022-11-15T08:51:32;7.40;99.90
13229;DHT22;6680;53.220;10.402;2022-11-15T08:54:00;7.40;99.90
13229;DHT22;6680;53.220;10.402;2022-11-15T08:56:26;7.50;99.90
13229;DHT22;6680;53.220;10.402;2022-11-15T08:58:53;7.50;99.90
13229;DHT22;6680;53.220;10.402;2022-11-15T09:01:20;7.40;99.90
13229;DHT22;6680;53.220;10.402;2022-11-15T09:03:47;7.40;99.90
13229;DHT22;6680;53.220;10.402;2022-11-15T09:06:14;7.40;99.90
13229;DHT22;6680;53.220;10.402;2022-11-15T09:08:41;7.40;99.90
13229;DHT22;6680;53.220;10.402;2022-11-15T09:11:10;7.40;99.90
13229;DHT22;6680;53.220;10.402;2022-11-15T09:13:37;7.40;99.90
13229;DHT22;6680;53.220;10.402;2022-11-15T09:16:04;7.40;99.90
13229;DHT22;6680;53.220;10.402;2022-11-15T09:18:32;7.50;99.90
13229;DHT22;6680;53.220;10.402;2022-11-15T09:20:59;7.60;99.90
13229;DHT22;6680;53.220;10.402;2022-11-15T09:23:27;7.70;99.90
13229;DHT22;6680;53.220;10.402;2022-11-15T09:25:58;7.90;99.90
13229;DHT22;6680;53.220;10.402;2022-11-15T09:28:27;8.00;99.90
13229;DHT22;6680;53.220;10.402;2022-11-15T09:30:56;8.30;99.90
13229;DHT22;6680;53.220;10.402;2022-11-15T09:33:24;8.50;99.90
13229;DHT22;6680;53.220;10.402;2022-11-15T09:35:50;8.70;99.90
13229;DHT22;6680;53.220;10.402;2022-11-15T09:38:17;8.90;99.90
13229;DHT22;6680;53.220;10.402;2022-11-15T09:40:45;9.10;99.90
13229;DHT22;6680;53.220;10.402;2022-11-15T09:43:28;9.20;99.90
13229;DHT22;6680;53.220;10.402;2022-11-15T09:46:03;9.40;99.90
13229;DHT22;6680;53.220;10.402;2022-11-15T09:48:46;9.60;99.90
13229;DHT22;6680;53.220;10.402;2022-11-15T09:51:22;9.70;99.90
13229;DHT22;6680;53.220;10.402;2022-11-15T09:53:57;9.80;99.90
13229;DHT22;6680;53.220;10.402;2022-11-15T09:56:27;10.00;99.90
13229;DHT22;6680;53.220;10.402;2022-11-15T09:59:03;10.20;99.90
13229;DHT22;6680;53.220;10.402;2022-11-15T10:01:41;10.40;99.90
13229;DHT22;6680;53.220;10.402;2022-11-15T10:04:11;10.50;99.90
13229;DHT22;6680;53.220;10.402;2022-11-15T10:06:47;10.70;99.90
13229;DHT22;6680;53.220;10.402;2022-11-15T10:09:18;10.70;99.90
13229;DHT22;6680;53.220;10.402;2022-11-15T10:11:45;10.80;99.90
13229;DHT22;6680;53.220;10.402;2022-11-15T10:14:15;10.80;99.90
13229;DHT22;6680;53.220;10.402;2022-11-15T10:17:02;11.10;99.90
13229;DHT22;6680;53.220;10.402;2022-11-15T10:19:37;10.90;99.90
13229;DHT22;6680;53.220;10.402;2022-11-15T10:22:18;11.00;99.90
13229;DHT22;6680;53.220;10.402;2022-11-15T10:24:47;11.00;99.90
13229;DHT22;6680;53.220;10.402;2022-11-15T10:27:16;11.00;99.90
13229;DHT22;6680;53.220;10.402;2022-11-15T10:29:45;11.10;99.90
13229;DHT22;6680;53.220;10.402;2022-11-15T10:32:14;11.20;99.90
13229;DHT22;6680;53.220;10.402;2022-11-15T10:34:41;11.20;99.90
13229;DHT22;6680;53.220;10.402;2022-11-15T10:37:08;11.30;99.90
13229;DHT22;6680;53.220;10.402;2022-11-15T10:39:35;11.40;99.90
13229;DHT22;6680;53.220;10.402;2022-11-15T10:42:15;11.40;99.90
13229;DHT22;6680;53.220;10.402;2022-11-15T10:44:44;11.50;99.90
13229;DHT22;6680;53.220;10.402;2022-11-15T10:47:31;11.60;99.90
13229;DHT22;6680;53.220;10.402;2022-11-15T10:50:01;11.70;99.90
13229;DHT22;6680;53.220;10.402;2022-11-15T10:52:30;11.80;99.90
13229;DHT22;6680;53.220;10.402;2022-11-15T10:55:01;11.90;99.90
13229;DHT22;6680;53.220;10.402;2022-11-15T10:57:31;12.00;99.90
13229;DHT22;6680;53.220;10.402;2022-11-15T11:00:03;12.00;99.90
13229;DHT22;6680;53.220;10.402;2022-11-15T11:02:33;12.00;99.90
13229;DHT22;6680;53.220;10.402;2022-11-15T11:05:01;12.10;99.90
13229;DHT22;6680;53.220;10.402;2022-11-15T11:07:30;12.10;99.90
13229;DHT22;6680;53.220;10.402;2022-11-15T11:09:59;12.10;99.90
13229;DHT22;6680;53.220;10.402;2022-11-15T11:12:28;12.10;99.90
13229;DHT22;6680;53.220;10.402;2022-11-15T11:14:55;12.10;99.90
13229;DHT22;6680;53.220;10.402;2022-11-15T11:17:32;12.10;99.90
13229;DHT22;6680;53.220;10.402;2022-11-15T11:20:07;12.10;99.90
13229;DHT22;6680;53.220;10.402;2022-11-15T11:22:53;12.10;99.90
13229;DHT22;6680;53.220;10.402;2022-11-15T11:25:29;12.10;99.90
13229;DHT22;6680;53.220;10.402;2022-11-15T11:28:11;12.20;99.90
13229;DHT22;6680;53.220;10.402;2022-11-15T11:30:49;12.20;99.90
13229;DHT22;6680;53.220;10.402;2022-11-15T11:33:21;12.30;99.90
13229;DHT22;6680;53.220;10.402;2022-11-15T11:35:58;12.30;99.90
13229;DHT22;6680;53.220;10.402;2022-11-15T11:38:37;12.30;99.90
13229;DHT22;6680;53.220;10.402;2022-11-15T11:41:13;12.40;99.90
13229;DHT22;6680;53.220;10.402;2022-11-15T11:43:49;12.40;99.90
13229;DHT22;6680;53.220;10.402;2022-11-15T11:46:35;12.30;99.90
13229;DHT22;6680;53.220;10.402;2022-11-15T11:49:09;12.30;99.90
13229;DHT22;6680;53.220;10.402;2022-11-15T11:51:39;12.20;99.90
13229;DHT22;6680;53.220;10.402;2022-11-15T11:54:12;12.10;99.90
13229;DHT22;6680;53.220;10.402;2022-11-15T11:56:43;12.20;99.90
13229;DHT22;6680;53.220;10.402;2022-11-15T11:59:18;12.00;99.90
13229;DHT22;6680;53.220;10.402;2022-11-15T12:01:46;12.00;99.90
13229;DHT22;6680;53.220;10.402;2022-11-15T12:04:18;11.90;99.90
13229;DHT22;6680;53.220;10.402;2022-11-15T12:06:49;12.10;99.90
13229;DHT22;6680;53.220;10.402;2022-11-15T12:09:20;12.00;99.90
13229;DHT22;6680;53.220;10.402;2022-11-15T12:11:52;11.90;99.90
13229;DHT22;6680;53.220;10.402;2022-11-15T12:14:27;12.00;99.90
13229;DHT22;6680;53.220;10.402;2022-11-15T12:16:55;12.00;99.90
13229;DHT22;6680;53.220;10.402;2022-11-15T12:19:25;12.00;99.90
13229;DHT22;6680;53.220;10.402;2022-11-15T12:21:56;12.00;99.90
13229;DHT22;6680;53.220;10.402;2022-11-15T12:24:29;12.00;99.90
13229;DHT22;6680;53.220;10.402;2022-11-15T12:27:01;12.00;99.90
13229;DHT22;6680;53.220;10.402;2022-11-15T12:29:37;12.00;99.90
13229;DHT22;6680;53.220;10.402;2022-11-15T12:32:22;12.10;99.90
13229;DHT22;6680;53.220;10.402;2022-11-15T12:34:52;12.10;99.90
13229;DHT22;6680;53.220;10.402;2022-11-15T12:37:53;12.10;99.90
13229;DHT22;6680;53.220;10.402;2022-11-15T12:40:28;12.00;99.90
13229;DHT22;6680;53.220;10.402;2022-11-15T12:46:12;12.10;99.90
13229;DHT22;6680;53.220;10.402;2022-11-15T12:48:58;12.10;99.90
13229;DHT22;6680;53.220;10.402;2022-11-15T12:52:06;12.20;99.90
13229;DHT22;6680;53.220;10.402;2022-11-15T12:57:39;12.20;99.90
13229;DHT22;6680;53.220;10.402;2022-11-15T13:03:22;12.20;99.90
13229;DHT22;6680;53.220;10.402;2022-11-15T13:06:08;12.20;99.90
13229;DHT22;6680;53.220;10.402;2022-11-15T13:08:38;12.20;99.90
13229;DHT22;6680;53.220;10.402;2022-11-15T13:11:43;12.20;99.90
13229;DHT22;6680;53.220;10.402;2022-11-15T13:14:39;12.20;99.90
13229;DHT22;6680;53.220;10.402;2022-11-15T13:17:26;12.20;99.90
13229;DHT22;6680;53.220;10.402;2022-11-15T13:19:59;12.10;99.90
13229;DHT22;6680;53.220;10.402;2022-11-15T13:22:26;12.10;99.90
13229;DHT22;6680;53.220;10.402;2022-11-15T13:28:30;12.00;99.90
13229;DHT22;6680;53.220;10.402;2022-11-15T13:30:59;11.90;99.90
13229;DHT22;6680;53.220;10.402;2022-11-15T13:33:30;12.00;99.90
13229;DHT22;6680;53.220;10.402;2022-11-15T13:35:59;12.00;99.90
13229;DHT22;6680;53.220;10.402;2022-11-15T13:38:28;11.90;99.90
13229;DHT22;6680;53.220;10.402;2022-11-15T13:40:57;11.90;99.90
13229;DHT22;6680;53.220;10.402;2022-11-15T13:43:31;11.90;99.90
13229;DHT22;6680;53.220;10.402;2022-11-15T13:46:11;11.90;99.90
13229;DHT22;6680;53.220;10.402;2022-11-15T13:48:39;11.90;99.90
13229;DHT22;6680;53.220;10.402;2022-11-15T13:51:10;11.80;99.90
13229;DHT22;6680;53.220;10.402;2022-11-15T13:53:43;11.80;99.90
13229;DHT22;6680;53.220;10.402;2022-11-15T13:56:14;11.80;99.90
13229;DHT22;6680;53.220;10.402;2022-11-15T13:58:41;11.80;99.90
13229;DHT22;6680;53.220;10.402;2022-11-15T14:01:15;11.70;99.90
13229;DHT22;6680;53.220;10.402;2022-11-15T14:03:49;11.70;99.90
13229;DHT22;6680;53.220;10.402;2022-11-15T14:06:18;11.60;99.90
13229;DHT22;6680;53.220;10.402;2022-11-15T14:09:15;11.60;99.90
13229;DHT22;6680;53.220;10.402;2022-11-15T14:11:52;11.60;99.90
13229;DHT22;6680;53.220;10.402;2022-11-15T14:14:21;11.60;99.90
13229;DHT22;6680;53.220;10.402;2022-11-15T14:16:50;11.70;99.90
13229;DHT22;6680;53.220;10.402;2022-11-15T14:19:40;11.50;99.90
13229;DHT22;6680;53.220;10.402;2022-11-15T14:22:15;11.50;99.90
13229;DHT22;6680;53.220;10.402;2022-11-15T14:24:44;11.40;99.90
13229;DHT22;6680;53.220;10.402;2022-11-15T14:27:27;11.40;99.90
13229;DHT22;6680;53.220;10.402;2022-11-15T14:29:54;11.30;99.90
13229;DHT22;6680;53.220;10.402;2022-11-15T14:32:23;11.30;99.90
13229;DHT22;6680;53.220;10.402;2022-11-15T14:34:54;11.20;99.90
13229;DHT22;6680;53.220;10.402;2022-11-15T14:37:23;11.20;99.90
13229;DHT22;6680;53.220;10.402;2022-11-15T14:39:51;11.10;99.90
13229;DHT22;6680;53.220;10.402;2022-11-15T14:42:18;11.10;99.90
13229;DHT22;6680;53.220;10.402;2022-11-15T14:44:47;11.00;99.90
13229;DHT22;6680;53.220;10.402;2022-11-15T14:47:14;11.00;99.90
13229;DHT22;6680;53.220;10.402;2022-11-15T14:49:41;10.90;99.90
13229;DHT22;6680;53.220;10.402;2022-11-15T14:52:21;10.90;99.90
13229;DHT22;6680;53.220;10.402;2022-11-15T14:54:49;10.80;99.90
13229;DHT22;6680;53.220;10.402;2022-11-15T14:57:16;10.80;99.90
13229;DHT22;6680;53.220;10.402;2022-11-15T14:59:42;10.70;99.90
13229;DHT22;6680;53.220;10.402;2022-11-15T15:02:16;10.60;99.90
13229;DHT22;6680;53.220;10.402;2022-11-15T15:04:43;10.60;99.90
13229;DHT22;6680;53.220;10.402;2022-11-15T15:07:10;10.50;99.90
13229;DHT22;6680;53.220;10.402;2022-11-15T15:09:36;10.50;99.90
13229;DHT22;6680;53.220;10.402;2022-11-15T15:12:04;10.40;99.90
13229;DHT22;6680;53.220;10.402;2022-11-15T15:14:32;10.40;99.90
13229;DHT22;6680;53.220;10.402;2022-11-15T15:16:59;10.40;99.90
13229;DHT22;6680;53.220;10.402;2022-11-15T15:19:27;10.30;99.90
13229;DHT22;6680;53.220;10.402;2022-11-15T15:21:53;10.30;99.90
13229;DHT22;6680;53.220;10.402;2022-11-15T15:24:20;10.20;99.90
13229;DHT22;6680;53.220;10.402;2022-11-15T15:26:47;10.20;99.90
13229;DHT22;6680;53.220;10.402;2022-11-15T15:29:13;10.00;99.90
13229;DHT22;6680;53.220;10.402;2022-11-15T15:31:40;9.90;99.90
13229;DHT22;6680;53.220;10.402;2022-11-15T15:34:07;9.90;99.90
13229;DHT22;6680;53.220;10.402;2022-11-15T15:36:35;9.80;99.90
13229;DHT22;6680;53.220;10.402;2022-11-15T15:39:02;9.80;99.90
13229;DHT22;6680;53.220;10.402;2022-11-15T15:41:29;9.70;99.90
13229;DHT22;6680;53.220;10.402;2022-11-15T15:43:55;9.70;99.90
13229;DHT22;6680;53.220;10.402;2022-11-15T15:46:22;9.70;99.90
13229;DHT22;6680;53.220;10.402;2022-11-15T15:48:49;9.70;99.90
13229;DHT22;6680;53.220;10.402;2022-11-15T15:51:15;9.70;99.90
13229;DHT22;6680;53.220;10.402;2022-11-15T15:53:43;9.80;99.90
13229;DHT22;6680;53.220;10.402;2022-11-15T15:56:10;9.80;99.90
13229;DHT22;6680;53.220;10.402;2022-11-15T15:58:37;9.70;99.90
13229;DHT22;6680;53.220;10.402;2022-11-15T16:01:04;9.70;99.90
13229;DHT22;6680;53.220;10.402;2022-11-15T16:03:30;9.60;99.90
13229;DHT22;6680;53.220;10.402;2022-11-15T16:05:57;9.50;99.90
13229;DHT22;6680;53.220;10.402;2022-11-15T16:08:25;9.50;99.90
13229;DHT22;6680;53.220;10.402;2022-11-15T16:10:54;9.40;99.90
13229;DHT22;6680;53.220;10.402;2022-11-15T16:13:20;9.40;99.90
13229;DHT22;6680;53.220;10.402;2022-11-15T16:15:51;9.40;99.90
13229;DHT22;6680;53.220;10.402;2022-11-15T16:18:18;9.40;99.90